createdAt,value
2017-11-16T00:00:27.526Z,60.61
2017-11-16T00:01:40.756Z,60.42
2017-11-16T00:02:53.941Z,58.9
2017-11-16T00:04:07.636Z,58.8
2017-11-16T00:05:21.382Z,56.96
2017-11-16T00:06:34.570Z,56.57
2017-11-16T00:07:48.238Z,57.08
2017-11-16T00:09:01.962Z,57.47
2017-11-16T00:10:15.670Z,58.15
2017-11-16T00:11:29.474Z,58.9
2017-11-16T00:12:42.620Z,59.67
2017-11-16T00:13:55.841Z,59.77
2017-11-16T00:15:09.023Z,59.67
2017-11-16T00:16:22.708Z,59.67
2017-11-16T00:17:36.619Z,59.87
2017-11-16T00:18:49.801Z,59.67
2017-11-16T00:20:03.511Z,59.94
2017-11-16T00:21:16.193Z,59.94
2017-11-16T00:22:29.944Z,60.03
2017-11-16T00:23:43.138Z,60.91
2017-11-16T00:24:56.323Z,61.1
2017-11-16T00:26:10.037Z,60.91
2017-11-16T00:27:23.713Z,61.19
2017-11-16T00:28:37.392Z,61.58
2017-11-16T00:29:50.559Z,61.58
2017-11-16T00:31:03.747Z,61.19
2017-11-16T00:32:16.899Z,61.98
2017-11-16T00:33:30.623Z,62.23
2017-11-16T00:34:44.312Z,62.33
2017-11-16T00:35:57.972Z,62.43
2017-11-16T00:37:11.164Z,62.82
2017-11-16T00:38:24.880Z,61.36
2017-11-16T00:39:38.620Z,61.62
2017-11-16T00:40:52.320Z,61.24
2017-11-16T00:42:04.985Z,61.55
2017-11-16T00:43:18.188Z,62.59
2017-11-16T00:44:31.932Z,63.69
2017-11-16T00:45:45.833Z,65.3
2017-11-16T00:46:59.515Z,66.08
2017-11-16T00:48:13.274Z,66.43
2017-11-16T00:49:26.958Z,66.72
2017-11-16T00:50:40.671Z,67.79
2017-11-16T00:51:53.823Z,67.66
2017-11-16T00:53:06.965Z,68.33
2017-11-16T00:54:20.665Z,68.15
2017-11-16T00:55:34.316Z,68.53
2017-11-16T00:56:47.478Z,68.53
2017-11-16T00:58:01.214Z,68.43
2017-11-16T00:59:15.166Z,68.73
2017-11-16T01:00:28.809Z,68.82
2017-11-16T01:01:42.002Z,68.15
2017-11-16T01:02:55.751Z,67.95
2017-11-16T01:04:08.409Z,67.85
2017-11-16T01:05:22.137Z,67.46
2017-11-16T01:06:35.889Z,67.66
2017-11-16T01:07:49.794Z,67.56
2017-11-16T01:09:03.474Z,67.85
2017-11-16T01:10:17.405Z,67.66
2017-11-16T01:11:31.177Z,67.56
2017-11-16T01:12:44.349Z,67.85
2017-11-16T01:13:58.034Z,67.76
2017-11-16T01:15:11.750Z,67.46
2017-11-16T01:16:25.638Z,68.33
2017-11-16T01:17:39.357Z,68.05
2017-11-16T01:18:53.065Z,68.73
2017-11-16T01:20:06.964Z,69.46
2017-11-16T01:21:20.686Z,69.27
2017-11-16T01:22:34.413Z,69.37
2017-11-16T01:23:48.108Z,69.66
2017-11-16T01:25:01.818Z,69.37
2017-11-16T01:26:15.537Z,69.95
2017-11-16T01:27:28.680Z,70.04
2017-11-16T01:28:42.116Z,70.72
2017-11-16T01:29:54.859Z,69.85
2017-11-16T01:31:07.536Z,69.75
2017-11-16T01:32:21.277Z,69.08
2017-11-16T01:33:38.276Z,68.69
2017-11-16T01:34:51.977Z,68.59
2017-11-16T01:36:05.137Z,68.33
2017-11-16T01:37:17.789Z,68.24
2017-11-16T01:38:31.528Z,68.15
2017-11-16T01:39:45.204Z,68.43
2017-11-16T01:40:58.889Z,68.15
2017-11-16T01:42:12.740Z,67.76
2017-11-16T01:43:25.890Z,67.85
2017-11-16T01:44:39.562Z,67.76
2017-11-16T01:45:53.272Z,68.15
2017-11-16T01:47:06.965Z,68.05
2017-11-16T01:48:20.165Z,68.05
2017-11-16T01:49:33.879Z,68.05
2017-11-16T01:50:47.570Z,68.43
2017-11-16T01:52:00.792Z,69.01
2017-11-16T01:53:13.986Z,68.91
2017-11-16T01:54:27.703Z,69.69
2017-11-16T01:55:41.442Z,70.08
2017-11-16T01:56:54.682Z,70.43
2017-11-16T01:58:08.383Z,70.34
2017-11-16T01:59:21.092Z,71.2
2017-11-16T02:00:34.803Z,70.92
2017-11-16T02:01:48.522Z,71.88
2017-11-16T02:03:02.213Z,71.5
2017-11-16T02:04:15.389Z,71.69
2017-11-16T02:05:29.042Z,71.69
2017-11-16T02:06:42.952Z,70.82
2017-11-16T02:07:56.645Z,71.11
2017-11-16T02:09:10.582Z,71.4
2017-11-16T02:10:23.773Z,70.92
2017-11-16T02:11:37.172Z,71.2
2017-11-16T02:12:50.861Z,71.3
2017-11-16T02:14:04.579Z,70.14
2017-11-16T02:15:18.257Z,69.75
2017-11-16T02:16:31.494Z,69.17
2017-11-16T02:17:45.163Z,69.85
2017-11-16T02:18:58.863Z,69.37
2017-11-16T02:20:12.595Z,69.46
2017-11-16T02:21:26.337Z,69.5
2017-11-16T02:22:39.609Z,69.27
2017-11-16T02:24:12.466Z,68.33
2017-11-16T02:25:26.193Z,68.69
2017-11-16T02:26:39.862Z,68.88
2017-11-16T02:27:53.569Z,69.08
2017-11-16T02:29:07.304Z,68.4
2017-11-16T02:30:21.043Z,68.79
2017-11-16T02:31:34.795Z,69.17
2017-11-16T02:32:48.480Z,69.75
2017-11-16T02:34:01.705Z,70.14
2017-11-16T02:35:15.369Z,69.85
2017-11-16T02:36:29.115Z,69.95
2017-11-16T02:37:42.287Z,70.72
2017-11-16T02:38:55.960Z,70.53
2017-11-16T02:40:09.714Z,70.92
2017-11-16T02:41:22.903Z,70.72
2017-11-16T02:42:36.613Z,71.01
2017-11-16T02:43:49.862Z,71.78
2017-11-16T02:45:03.545Z,71.5
2017-11-16T02:46:17.325Z,71.78
2017-11-16T02:47:30.519Z,72.17
2017-11-16T02:48:44.242Z,72.46
2017-11-16T02:49:56.976Z,72.85
2017-11-16T02:51:09.645Z,73.3
2017-11-16T02:52:23.301Z,73.68
2017-11-16T02:53:36.526Z,74.07
2017-11-16T02:54:50.252Z,73.78
2017-11-16T02:56:03.939Z,74.07
2017-11-16T02:57:17.126Z,73.97
2017-11-16T02:58:31.008Z,74.55
2017-11-16T02:59:44.748Z,74.17
2017-11-16T03:00:58.490Z,73.88
2017-11-16T03:02:11.164Z,74.94
2017-11-16T03:03:24.868Z,75.04
2017-11-16T03:04:38.596Z,74.85
2017-11-16T03:05:52.274Z,75.43
2017-11-16T03:07:05.442Z,75.23
2017-11-16T03:08:18.615Z,75.13
2017-11-16T03:09:31.675Z,75.71
2017-11-16T03:10:44.332Z,75.48
2017-11-16T03:11:58.107Z,75.78
2017-11-16T03:13:11.323Z,75.78
2017-11-16T03:14:23.973Z,75.48
2017-11-16T03:15:37.692Z,75.48
2017-11-16T03:16:51.389Z,76.35
2017-11-16T03:18:05.128Z,76.16
2017-11-16T03:19:18.809Z,75.97
2017-11-16T03:20:32.482Z,76.45
2017-11-16T03:21:46.213Z,77.03
2017-11-16T03:22:59.951Z,76.64
2017-11-16T03:24:13.650Z,76.93
2017-11-16T03:25:27.357Z,77.13
2017-11-16T03:26:41.020Z,77.13
2017-11-16T03:27:54.193Z,77.42
2017-11-16T03:29:06.976Z,77.8
2017-11-16T03:30:20.678Z,77.76
2017-11-16T03:31:34.620Z,77.32
2017-11-16T03:32:47.802Z,77.13
2017-11-16T03:34:01.064Z,77.13
2017-11-16T03:35:14.731Z,77.32
2017-11-16T03:36:28.626Z,77.71
2017-11-16T03:37:42.537Z,77.22
2017-11-16T03:38:55.713Z,77.61
2017-11-16T03:40:09.378Z,78.19
2017-11-16T03:41:22.537Z,78.29
2017-11-16T03:42:36.332Z,78.19
2017-11-16T03:43:50.061Z,78.92
2017-11-16T03:45:03.752Z,79.41
2017-11-16T03:46:17.459Z,79.22
2017-11-16T03:47:30.952Z,79.89
2017-11-16T03:48:45.277Z,79.7
2017-11-16T03:49:58.978Z,79.41
2017-11-16T03:51:13.609Z,79.6
2017-11-16T03:52:27.355Z,79.6
2017-11-16T03:53:41.058Z,79.6
2017-11-16T03:54:54.259Z,80.28
2017-11-16T03:56:07.471Z,79.6
2017-11-16T03:57:20.378Z,80.18
2017-11-16T03:58:34.086Z,80.08
2017-11-16T03:59:47.272Z,80.47
2017-11-16T04:01:01.006Z,80.08
2017-11-16T04:02:14.201Z,79.7
2017-11-16T04:03:27.892Z,79.22
2017-11-16T04:04:41.607Z,79.7
2017-11-16T04:05:55.300Z,79.41
2017-11-16T04:07:08.475Z,79.41
2017-11-16T04:08:22.174Z,79.12
2017-11-16T04:09:35.326Z,78.44
2017-11-16T04:10:49.057Z,79.02
2017-11-16T04:12:02.763Z,77.86
2017-11-16T04:13:16.450Z,78.73
2017-11-16T04:14:30.142Z,78.25
2017-11-16T04:15:43.399Z,78.25
2017-11-16T04:16:56.567Z,78.34
2017-11-16T04:18:10.292Z,78.15
2017-11-16T04:19:23.959Z,78.64
2017-11-16T04:20:37.689Z,78.73
2017-11-16T04:21:50.931Z,78.83
2017-11-16T04:23:04.737Z,78.54
2017-11-16T04:24:18.439Z,78.83
2017-11-16T04:25:32.146Z,77.96
2017-11-16T04:26:46.051Z,78.25
2017-11-16T04:27:59.757Z,78.64
2017-11-16T04:29:13.472Z,77.96
2017-11-16T04:30:27.140Z,79.41
2017-11-16T04:31:40.799Z,78.06
2017-11-16T04:32:54.002Z,79.22
2017-11-16T04:34:07.924Z,79.41
2017-11-16T04:35:21.649Z,79.02
2017-11-16T04:36:35.325Z,79.12
2017-11-16T04:37:49.104Z,79.31
2017-11-16T04:39:02.826Z,78.83
2017-11-16T04:40:16.012Z,78.06
2017-11-16T04:41:29.738Z,78.54
2017-11-16T04:42:43.460Z,78.83
2017-11-16T04:43:56.623Z,77.96
2017-11-16T04:45:10.553Z,78.54
2017-11-16T04:46:24.268Z,78.83
2017-11-16T04:47:37.427Z,78.83
2017-11-16T04:48:51.146Z,79.12
2017-11-16T04:50:04.819Z,80.18
2017-11-16T04:51:18.740Z,79.7
2017-11-16T04:52:32.498Z,79.6
2017-11-16T04:53:46.398Z,79.6
2017-11-16T04:55:00.291Z,79.5
2017-11-16T04:56:13.980Z,79.7
2017-11-16T04:57:27.658Z,79.8
2017-11-16T04:58:41.349Z,79.99
2017-11-16T04:59:55.087Z,80.72
2017-11-16T05:01:08.303Z,80.72
2017-11-16T05:02:22.070Z,80.91
2017-11-16T05:03:35.805Z,80.53
2017-11-16T05:04:49.577Z,80.14
2017-11-16T05:06:02.752Z,80.14
2017-11-16T05:07:15.696Z,79.41
2017-11-16T05:08:28.835Z,80.18
2017-11-16T05:09:42.782Z,79.41
2017-11-16T05:10:56.925Z,79.7
2017-11-16T05:12:10.665Z,79.41
2017-11-16T05:13:24.351Z,80.08
2017-11-16T05:14:38.044Z,81.11
2017-11-16T05:15:51.765Z,80.72
2017-11-16T05:17:04.973Z,81.01
2017-11-16T05:18:18.881Z,82.36
2017-11-16T05:19:32.602Z,82.36
2017-11-16T05:20:46.282Z,82.56
2017-11-16T05:21:59.486Z,82.75
2017-11-16T05:23:13.245Z,82.56
2017-11-16T05:24:26.408Z,82.84
2017-11-16T05:25:40.130Z,83.39
2017-11-16T05:26:53.344Z,83.87
2017-11-16T05:28:06.541Z,83.96
2017-11-16T05:29:19.771Z,84.44
2017-11-16T05:30:33.249Z,84.44
2017-11-16T05:31:46.955Z,83.77
2017-11-16T05:33:00.712Z,83.09
2017-11-16T05:34:14.375Z,83.39
2017-11-16T05:35:28.082Z,83.39
2017-11-16T05:36:41.783Z,83.81
2017-11-16T05:37:55.480Z,84.06
2017-11-16T05:39:09.210Z,83.77
2017-11-16T05:40:22.880Z,82.71
2017-11-16T05:41:36.596Z,83.42
2017-11-16T05:42:49.759Z,82.65
2017-11-16T05:44:03.459Z,82.84
2017-11-16T05:45:16.639Z,82.07
2017-11-16T05:46:30.362Z,81.2
2017-11-16T05:47:44.257Z,81.88
2017-11-16T05:48:57.986Z,81.11
2017-11-16T05:50:11.179Z,81.49
2017-11-16T05:51:24.898Z,81.98
2017-11-16T05:52:38.642Z,81.88
2017-11-16T05:53:52.343Z,81.4
2017-11-16T05:55:05.020Z,81.49
2017-11-16T05:56:18.779Z,81.3
2017-11-16T05:57:32.518Z,80.91
2017-11-16T05:58:46.286Z,81.49
2017-11-16T05:59:59.467Z,81.01
2017-11-16T06:01:12.133Z,80.33
2017-11-16T06:02:25.805Z,80.62
2017-11-16T06:03:39.519Z,81.01
2017-11-16T06:04:53.219Z,80.91
2017-11-16T06:06:06.409Z,81.16
2017-11-16T06:07:19.913Z,81.45
2017-11-16T06:08:33.108Z,81.74
2017-11-16T06:09:46.309Z,81.93
2017-11-16T06:11:00.065Z,82.23
2017-11-16T06:12:13.811Z,82.61
2017-11-16T06:13:27.502Z,82.61
2017-11-16T06:14:41.188Z,83
2017-11-16T06:15:53.855Z,82.9
2017-11-16T06:17:07.154Z,83.77
2017-11-16T06:18:20.340Z,83.44
2017-11-16T06:19:32.983Z,83.44
2017-11-16T06:20:46.160Z,82.48
2017-11-16T06:21:59.334Z,83.29
2017-11-16T06:23:13.068Z,82.81
2017-11-16T06:24:26.742Z,82.38
2017-11-16T06:25:39.956Z,82.9
2017-11-16T06:26:53.696Z,82.61
2017-11-16T06:28:07.402Z,82.23
2017-11-16T06:29:21.109Z,82.61
2017-11-16T06:30:35.663Z,82.03
2017-11-16T06:31:52.027Z,82.03
2017-11-16T06:33:05.779Z,82.71
2017-11-16T06:34:19.695Z,82.51
2017-11-16T06:35:33.633Z,82.18
2017-11-16T06:36:46.345Z,83.25
2017-11-16T06:38:00.071Z,83.15
2017-11-16T06:39:13.783Z,83.15
2017-11-16T06:40:27.507Z,82.96
2017-11-16T06:41:40.730Z,82.86
2017-11-16T06:42:53.954Z,83.53
2017-11-16T06:44:32.858Z,83.44
2017-11-16T06:45:46.058Z,83.25
2017-11-16T06:46:59.730Z,83.53
2017-11-16T06:48:13.460Z,83.25
2017-11-16T06:49:27.388Z,83.05
2017-11-16T06:50:41.286Z,83.44
2017-11-16T06:51:54.606Z,83.15
2017-11-16T06:53:08.287Z,82.96
2017-11-16T06:54:22.004Z,82.67
2017-11-16T06:55:35.725Z,82.76
2017-11-16T06:56:47.896Z,83.34
2017-11-16T06:58:01.622Z,83.25
2017-11-16T06:59:14.296Z,83.34
2017-11-16T07:00:28.034Z,82.18
2017-11-16T07:01:41.754Z,82.57
2017-11-16T07:02:54.620Z,82.48
2017-11-16T07:04:07.989Z,82.48
2017-11-16T07:05:21.650Z,82.09
2017-11-16T07:06:35.387Z,82.18
2017-11-16T07:07:49.504Z,82.38
2017-11-16T07:09:03.235Z,83.05
2017-11-16T07:10:16.424Z,82.38
2017-11-16T07:11:30.087Z,83.53
2017-11-16T07:12:43.785Z,83.34
2017-11-16T07:13:57.479Z,82.67
2017-11-16T07:15:10.654Z,82.86
2017-11-16T07:16:24.308Z,82.57
2017-11-16T07:17:38.002Z,82.38
2017-11-16T07:18:51.895Z,82.38
2017-11-16T07:20:05.610Z,82.57
2017-11-16T07:21:19.263Z,83.25
2017-11-16T07:22:32.673Z,82.96
2017-11-16T07:23:46.353Z,83.05
2017-11-16T07:25:00.125Z,82.38
2017-11-16T07:26:13.302Z,82.96
2017-11-16T07:27:27.032Z,83.05
2017-11-16T07:28:40.943Z,83.25
2017-11-16T07:29:54.686Z,82.86
2017-11-16T07:31:08.352Z,82.76
2017-11-16T07:32:21.523Z,82.82
2017-11-16T07:33:35.205Z,83.15
2017-11-16T07:34:48.914Z,83.15
2017-11-16T07:36:02.591Z,83.63
2017-11-16T07:37:15.763Z,83.59
2017-11-16T07:38:29.489Z,84.07
2017-11-16T07:39:42.694Z,84.94
2017-11-16T07:40:56.403Z,84.94
2017-11-16T07:42:10.152Z,85.13
2017-11-16T07:43:23.905Z,85.52
2017-11-16T07:44:37.693Z,86
2017-11-16T07:45:51.397Z,85.52
2017-11-16T07:47:05.085Z,85.33
2017-11-16T07:48:18.760Z,85.67
2017-11-16T07:49:32.451Z,85.86
2017-11-16T07:50:46.161Z,86.73
2017-11-16T07:51:59.394Z,87.21
2017-11-16T07:53:13.097Z,87.7
2017-11-16T07:54:26.831Z,86.82
2017-11-16T07:55:40.518Z,86.82
2017-11-16T07:56:53.672Z,86.63
2017-11-16T07:58:06.857Z,86.44
2017-11-16T07:59:20.546Z,86.15
2017-11-16T08:00:34.342Z,85.77
2017-11-16T08:01:48.041Z,85.96
2017-11-16T08:03:01.741Z,85.57
2017-11-16T08:04:14.923Z,85.19
2017-11-16T08:05:28.586Z,85.28
2017-11-16T08:06:42.312Z,85.57
2017-11-16T08:07:56.027Z,85.19
2017-11-16T08:09:09.185Z,85.57
2017-11-16T08:10:22.384Z,84.8
2017-11-16T08:11:35.524Z,84.99
2017-11-16T08:12:49.206Z,84.99
2017-11-16T08:14:02.461Z,84.8
2017-11-16T08:15:15.612Z,84.8
2017-11-16T08:16:29.358Z,85.19
2017-11-16T08:17:43.047Z,85.09
2017-11-16T08:18:56.746Z,85.61
2017-11-16T08:20:09.959Z,85.61
2017-11-16T08:21:23.105Z,85.19
2017-11-16T08:22:36.296Z,84.84
2017-11-16T08:23:49.454Z,83.5
2017-11-16T08:25:03.138Z,83.78
2017-11-16T08:26:16.830Z,82.62
2017-11-16T08:27:30.534Z,83.2
2017-11-16T08:28:44.260Z,82.76
2017-11-16T08:29:57.985Z,82.28
2017-11-16T08:31:10.658Z,81.9
2017-11-16T08:32:24.382Z,81.8
2017-11-16T08:33:37.520Z,81.12
2017-11-16T08:34:51.224Z,80.97
2017-11-16T08:36:24.151Z,80.3
2017-11-16T08:37:37.926Z,79.91
2017-11-16T08:38:51.647Z,78.85
2017-11-16T08:40:05.359Z,78.46
2017-11-16T08:41:19.087Z,78.31
2017-11-16T08:42:32.298Z,78.59
2017-11-16T08:43:45.981Z,77.44
2017-11-16T08:44:59.213Z,77.53
2017-11-16T08:46:12.934Z,77.53
2017-11-16T08:47:26.623Z,77.53
2017-11-16T08:48:40.344Z,77.09
2017-11-16T08:49:54.077Z,77.19
2017-11-16T08:51:07.317Z,76.61
2017-11-16T08:52:20.979Z,76.8
2017-11-16T08:53:34.633Z,76.61
2017-11-16T08:54:47.820Z,76.22
2017-11-16T08:56:32.643Z,76.03
2017-11-16T08:57:46.371Z,76.22
2017-11-16T08:59:00.079Z,76.12
2017-11-16T09:00:13.346Z,75
2017-11-16T09:01:27.055Z,74.52
2017-11-16T09:02:40.336Z,74.27
2017-11-16T09:03:54.076Z,72.81
2017-11-16T09:05:07.262Z,72.42
2017-11-16T09:06:19.934Z,71.17
2017-11-16T09:07:33.090Z,71.01
2017-11-16T09:08:46.821Z,71.59
2017-11-16T09:09:59.998Z,70.47
2017-11-16T09:11:13.698Z,70.18
2017-11-16T09:12:27.390Z,70.37
2017-11-16T09:13:41.098Z,69.79
2017-11-16T09:14:54.796Z,68.33
2017-11-16T09:16:08.526Z,70.31
2017-11-16T09:17:21.756Z,69.53
2017-11-16T09:18:35.433Z,67.14
2017-11-16T09:19:49.168Z,65.5
2017-11-16T09:21:02.825Z,64.85
2017-11-16T09:22:16.530Z,65.43
2017-11-16T09:23:30.317Z,66.69
2017-11-16T09:24:44.012Z,65.66
2017-11-16T09:25:57.208Z,64.88
2017-11-16T09:27:11.152Z,62.88
2017-11-16T09:28:24.852Z,62.52
2017-11-16T09:29:38.776Z,62.04
2017-11-16T09:30:52.503Z,62.71
2017-11-16T09:32:06.187Z,64.56
2017-11-16T09:33:19.961Z,62.91
2017-11-16T09:34:33.649Z,62.04
2017-11-16T09:35:46.848Z,61.29
2017-11-16T09:37:00.017Z,60.61
2017-11-16T09:38:13.702Z,60.71
2017-11-16T09:39:27.422Z,59.83
2017-11-16T09:40:40.605Z,61.22
2017-11-16T09:41:53.844Z,62.1
2017-11-16T09:43:07.752Z,61.25
2017-11-16T09:44:20.968Z,60.57
2017-11-16T09:45:34.156Z,60.38
2017-11-16T09:46:47.863Z,60.86
2017-11-16T09:48:01.562Z,60.18
2017-11-16T09:49:14.947Z,59.82
2017-11-16T09:50:28.660Z,59.14
2017-11-16T09:51:41.349Z,59.07
2017-11-16T09:52:55.026Z,58.87
2017-11-16T09:54:08.745Z,56.27
2017-11-16T09:55:22.007Z,57.25
2017-11-16T09:56:35.660Z,57.51
2017-11-16T09:57:49.413Z,58.46
2017-11-16T09:59:03.100Z,59.69
2017-11-16T10:00:16.789Z,58.72
2017-11-16T10:01:30.522Z,59.11
2017-11-16T10:02:44.229Z,58.98
2017-11-16T10:03:57.901Z,59.86
2017-11-16T10:05:11.705Z,59.86
2017-11-16T10:06:25.441Z,58.86
2017-11-16T10:07:39.196Z,58.95
2017-11-16T10:08:52.352Z,59.47
2017-11-16T10:10:05.521Z,58.79
2017-11-16T10:11:19.806Z,59.95
2017-11-16T10:12:33.603Z,59.64
2017-11-16T10:13:47.331Z,59.8
2017-11-16T10:15:01.011Z,60.48
2017-11-16T10:16:14.257Z,59.51
2017-11-16T10:17:27.934Z,59.97
2017-11-16T10:18:41.705Z,60.64
2017-11-16T10:19:54.389Z,60.74
2017-11-16T10:21:07.607Z,59.8
2017-11-16T10:22:20.835Z,59.61
2017-11-16T10:23:34.237Z,58.73
2017-11-16T10:24:47.990Z,58.11
2017-11-16T10:26:01.747Z,56.49
2017-11-16T10:27:14.935Z,57.62
2017-11-16T10:28:27.595Z,58.4
2017-11-16T10:29:40.814Z,57.11
2017-11-16T10:30:54.552Z,58.15
2017-11-16T10:32:07.722Z,57.76
2017-11-16T10:33:21.456Z,58.44
2017-11-16T10:34:35.195Z,58.25
2017-11-16T10:35:49.441Z,57.6
2017-11-16T10:37:03.202Z,58.25
2017-11-16T10:38:16.923Z,58.9
2017-11-16T10:39:30.623Z,58.22
2017-11-16T10:40:44.301Z,58.41
2017-11-16T10:41:58.041Z,59
2017-11-16T10:43:11.737Z,57.67
2017-11-16T10:44:24.998Z,56.79
2017-11-16T10:45:38.736Z,56.7
2017-11-16T10:46:52.463Z,57.54
2017-11-16T10:48:05.681Z,58.31
2017-11-16T10:49:19.418Z,57.64
2017-11-16T10:50:32.636Z,57.18
2017-11-16T10:51:46.338Z,55.85
2017-11-16T10:53:00.033Z,57.01
2017-11-16T10:54:13.779Z,57.11
2017-11-16T10:55:27.538Z,57.08
2017-11-16T10:56:40.253Z,57.57
2017-11-16T10:57:53.941Z,57.57
2017-11-16T10:59:07.179Z,56.24
2017-11-16T11:00:20.946Z,57.01
2017-11-16T11:01:34.614Z,56.14
2017-11-16T11:02:48.309Z,56.43
2017-11-16T11:04:02.098Z,56.5
2017-11-16T11:05:15.834Z,56.24
2017-11-16T11:06:29.509Z,55.55
2017-11-16T11:07:43.178Z,56.26
2017-11-16T11:08:56.888Z,55.78
2017-11-16T11:10:10.638Z,56.43
2017-11-16T11:11:24.050Z,57.01
2017-11-16T11:12:37.768Z,55
2017-11-16T11:13:51.422Z,56.43
2017-11-16T11:15:05.118Z,57.76
2017-11-16T11:16:18.803Z,57.44
2017-11-16T11:17:32.661Z,56.4
2017-11-16T11:18:46.511Z,55.58
2017-11-16T11:19:59.712Z,54.64
2017-11-16T11:21:13.475Z,55.41
2017-11-16T11:22:27.821Z,56.56
2017-11-16T11:23:41.257Z,55.27
2017-11-16T11:24:59.529Z,55.98
2017-11-16T11:26:13.347Z,57.11
2017-11-16T11:27:27.041Z,56.07
2017-11-16T11:28:40.739Z,57.04
2017-11-16T11:29:53.959Z,57.79
2017-11-16T11:31:07.203Z,56.92
2017-11-16T11:32:20.405Z,58.47
2017-11-16T11:33:33.692Z,57.21
2017-11-16T11:34:47.442Z,55.9
2017-11-16T11:36:00.658Z,56.56
2017-11-16T11:37:13.441Z,57.72
2017-11-16T11:38:27.171Z,56.49
2017-11-16T11:39:40.361Z,54.47
2017-11-16T11:41:25.181Z,52.94
2017-11-16T11:42:38.354Z,54.03
2017-11-16T11:43:52.229Z,53.79
2017-11-16T11:45:05.942Z,56.12
2017-11-16T11:46:19.644Z,56.12
2017-11-16T11:47:33.381Z,56.1
2017-11-16T11:48:47.135Z,54.74
2017-11-16T11:50:00.421Z,55.22
2017-11-16T11:51:13.623Z,55.22
2017-11-16T11:52:26.843Z,55.8
2017-11-16T11:53:40.569Z,54.57
2017-11-16T11:54:53.290Z,54.79
2017-11-16T11:56:05.948Z,54.01
2017-11-16T11:57:19.172Z,54.11
2017-11-16T11:58:32.912Z,53.33
2017-11-16T11:59:46.097Z,53.23
2017-11-16T12:00:59.833Z,54.5
2017-11-16T12:02:13.254Z,54.66
2017-11-16T12:03:27.023Z,55.25
2017-11-16T12:04:41.004Z,55.05
2017-11-16T12:05:54.696Z,54.57
2017-11-16T12:07:09.034Z,53.62
2017-11-16T12:08:22.782Z,53.33
2017-11-16T12:09:36.547Z,53.42
2017-11-16T12:10:50.265Z,54.66
2017-11-16T12:12:03.507Z,54.38
2017-11-16T12:13:16.731Z,54.66
2017-11-16T12:14:30.457Z,54.86
2017-11-16T12:15:44.150Z,55.74
2017-11-16T12:16:57.914Z,54.83
2017-11-16T12:18:11.652Z,54.76
2017-11-16T12:19:24.328Z,54.66
2017-11-16T12:20:38.089Z,54.96
2017-11-16T12:21:51.947Z,54.76
2017-11-16T12:23:05.665Z,53.69
2017-11-16T12:24:19.079Z,54.18
2017-11-16T12:25:32.356Z,53.79
2017-11-16T12:26:46.096Z,54.57
2017-11-16T12:27:59.857Z,54.66
2017-11-16T12:29:13.600Z,53.89
2017-11-16T12:30:27.341Z,53.52
2017-11-16T12:31:40.554Z,54.18
2017-11-16T12:32:54.319Z,54.38
2017-11-16T12:34:08.031Z,53.89
2017-11-16T12:35:21.795Z,54.76
2017-11-16T12:36:35.755Z,53.33
2017-11-16T12:37:49.452Z,51.9
2017-11-16T12:39:03.174Z,52.97
2017-11-16T12:40:16.948Z,52.38
2017-11-16T12:41:30.148Z,51.51
2017-11-16T12:42:42.864Z,52.38
2017-11-16T12:43:56.861Z,53.23
2017-11-16T12:45:10.610Z,53.3
2017-11-16T12:46:24.296Z,51.41
2017-11-16T12:47:36.938Z,52.77
2017-11-16T12:48:50.859Z,53.72
2017-11-16T12:50:04.041Z,53.2
2017-11-16T12:51:17.763Z,53.52
2017-11-16T12:52:31.488Z,51.41
2017-11-16T12:53:45.236Z,50.65
2017-11-16T12:54:59.002Z,50.36
2017-11-16T12:56:12.779Z,51.31
2017-11-16T12:57:25.505Z,50.16
2017-11-16T12:58:39.224Z,50.09
2017-11-16T12:59:52.952Z,50.19
2017-11-16T13:01:06.901Z,49.51
2017-11-16T13:02:20.655Z,50.58
2017-11-16T13:03:34.368Z,51.41
2017-11-16T13:04:47.555Z,50.63
2017-11-16T13:06:01.292Z,51.31
2017-11-16T13:07:15.149Z,51.14
2017-11-16T13:08:28.881Z,50.85
2017-11-16T13:09:42.594Z,50.58
2017-11-16T13:10:56.344Z,49.15
2017-11-16T13:12:09.563Z,49.54
2017-11-16T13:13:23.280Z,50.6
2017-11-16T13:14:36.996Z,49.05
2017-11-16T13:15:50.710Z,49.27
2017-11-16T13:17:04.476Z,49.73
2017-11-16T13:18:18.475Z,48.85
2017-11-16T13:19:32.982Z,49.73
2017-11-16T13:20:46.228Z,49.93
2017-11-16T13:21:59.478Z,50.19
2017-11-16T13:23:13.227Z,50.46
2017-11-16T13:24:27.003Z,51.34
2017-11-16T13:25:40.747Z,50.65
2017-11-16T13:26:54.481Z,49.02
2017-11-16T13:28:07.171Z,48.36
2017-11-16T13:29:20.912Z,48.46
2017-11-16T13:30:34.668Z,48.56
2017-11-16T13:31:48.371Z,48.68
2017-11-16T13:33:02.095Z,48
2017-11-16T13:34:15.252Z,46.97
2017-11-16T13:35:29.416Z,47.63
2017-11-16T13:36:43.179Z,48.1
2017-11-16T13:37:56.482Z,48
2017-11-16T13:39:09.191Z,48.32
2017-11-16T13:40:21.882Z,47.73
2017-11-16T13:41:35.670Z,48.58
2017-11-16T13:42:49.218Z,48.88
2017-11-16T13:44:02.949Z,48.34
2017-11-16T13:45:16.456Z,48.46
2017-11-16T13:46:29.699Z,48.75
2017-11-16T13:47:43.452Z,49.22
2017-11-16T13:48:57.226Z,49.51
2017-11-16T13:50:11.007Z,49.83
2017-11-16T13:51:24.251Z,49.17
2017-11-16T13:52:37.577Z,47.8
2017-11-16T13:53:50.775Z,48.68
2017-11-16T13:55:03.980Z,49.17
2017-11-16T13:56:17.739Z,48.58
2017-11-16T13:57:31.581Z,49.37
2017-11-16T13:58:45.507Z,48.39
2017-11-16T13:59:59.219Z,48.41
2017-11-16T14:01:12.933Z,49.37
2017-11-16T14:02:25.622Z,48.46
2017-11-16T14:03:38.811Z,48.12
2017-11-16T14:04:52.665Z,47.92
2017-11-16T14:06:05.347Z,47.75
2017-11-16T14:07:19.089Z,46.48
2017-11-16T14:08:33.088Z,46.99
2017-11-16T14:09:46.687Z,46.88
2017-11-16T14:11:00.416Z,48.05
2017-11-16T14:12:14.163Z,47.63
2017-11-16T14:13:27.366Z,48.51
2017-11-16T14:14:41.139Z,49.05
2017-11-16T14:15:54.869Z,49.12
2017-11-16T14:17:08.101Z,49.58
2017-11-16T14:18:21.789Z,48.63
2017-11-16T14:19:35.749Z,47.97
2017-11-16T14:20:49.041Z,45.8
2017-11-16T14:22:02.967Z,46.29
2017-11-16T14:23:16.699Z,45.9
2017-11-16T14:24:30.446Z,46.39
2017-11-16T14:25:44.188Z,46.68
2017-11-16T14:26:57.410Z,46.39
2017-11-16T14:28:10.597Z,46
2017-11-16T14:29:24.284Z,47.24
2017-11-16T14:30:37.491Z,45.09
2017-11-16T14:31:51.238Z,44.09
2017-11-16T14:33:04.414Z,44.67
2017-11-16T14:34:17.890Z,43.96
2017-11-16T14:35:30.587Z,43.96
2017-11-16T14:36:44.345Z,44.74
2017-11-16T14:37:58.089Z,44.55
2017-11-16T14:39:11.836Z,45.23
2017-11-16T14:40:25.536Z,46.85
2017-11-16T14:41:38.217Z,47.31
2017-11-16T14:42:51.977Z,48.27
2017-11-16T14:44:08.290Z,47.97
2017-11-16T14:45:23.497Z,46.34
2017-11-16T14:46:37.230Z,44.53
2017-11-16T14:47:50.418Z,43.3
2017-11-16T14:49:03.612Z,43.69
2017-11-16T14:50:17.573Z,43.4
2017-11-16T14:51:31.183Z,42.35
2017-11-16T14:52:44.434Z,40.63
2017-11-16T14:53:58.176Z,40.16
2017-11-16T14:55:11.411Z,41.52
2017-11-16T14:56:25.140Z,42.29
2017-11-16T14:57:38.357Z,41.99
2017-11-16T14:58:51.097Z,40.74
2017-11-16T15:00:04.787Z,41.52
2017-11-16T15:01:17.954Z,42.19
2017-11-16T15:02:31.704Z,42.56
2017-11-16T15:03:44.935Z,41.68
2017-11-16T15:04:58.371Z,42.09
2017-11-16T15:06:12.115Z,41.31
2017-11-16T15:07:25.896Z,41.11
2017-11-16T15:08:40.513Z,41.58
2017-11-16T15:09:54.232Z,42.93
2017-11-16T15:11:07.977Z,41.58
2017-11-16T15:12:21.706Z,43.23
2017-11-16T15:13:35.414Z,43.01
2017-11-16T15:14:49.138Z,42.42
2017-11-16T15:16:02.886Z,42.44
2017-11-16T15:17:16.692Z,42.27
2017-11-16T15:18:29.882Z,42.17
2017-11-16T15:19:43.061Z,41.02
2017-11-16T15:20:56.316Z,41.31
2017-11-16T15:22:10.077Z,43.15
2017-11-16T15:23:23.795Z,42.05
2017-11-16T15:24:37.531Z,41.49
2017-11-16T15:25:51.225Z,40.53
2017-11-16T15:27:03.902Z,40.33
2017-11-16T15:28:17.616Z,38.59
2017-11-16T15:29:31.374Z,41.62
2017-11-16T15:30:44.619Z,42.44
2017-11-16T15:31:58.348Z,41.07
2017-11-16T15:33:12.099Z,40.14
2017-11-16T15:34:26.740Z,39.64
2017-11-16T15:35:39.973Z,40.23
2017-11-16T15:36:53.700Z,37.63
2017-11-16T15:38:06.401Z,37.94
2017-11-16T15:39:20.533Z,39.88
2017-11-16T15:40:34.321Z,37.35
2017-11-16T15:41:48.104Z,37.46
2017-11-16T15:43:01.291Z,39.54
2017-11-16T15:44:14.512Z,41.42
2017-11-16T15:45:28.229Z,42.07
2017-11-16T15:46:41.978Z,40.97
2017-11-16T15:47:55.692Z,39.25
2017-11-16T15:49:36.381Z,37.81
2017-11-16T15:50:50.113Z,37.41
2017-11-16T15:52:04.496Z,37.9
2017-11-16T15:53:17.677Z,37.82